createdAt,value
2023-03-22T00:00:02.065Z,95.56
2023-03-22T00:01:02.012Z,95.84
2023-03-22T00:02:01.952Z,95.94
2023-03-22T00:03:04.484Z,95.41
2023-03-22T00:04:01.917Z,95.41
2023-03-22T00:05:01.780Z,95.27
2023-03-22T00:06:01.725Z,95.51
2023-03-22T00:07:01.673Z,95.32
2023-03-22T00:08:01.614Z,95.46
2023-03-22T00:09:01.558Z,95.32
2023-03-22T00:10:01.545Z,95.27
2023-03-22T00:11:01.450Z,95.41
2023-03-22T00:12:01.392Z,95.46
2023-03-22T00:13:01.336Z,95.41
2023-03-22T00:14:01.285Z,95.65
2023-03-22T00:15:01.223Z,95.51
2023-03-22T00:16:01.207Z,95.22
2023-03-22T00:17:01.169Z,95.51
2023-03-22T00:18:01.054Z,95.51
2023-03-22T00:19:01.021Z,95.41
2023-03-22T00:20:00.949Z,95.41
2023-03-22T00:21:00.886Z,95.22
2023-03-22T00:22:00.827Z,95.12
2023-03-22T00:23:00.801Z,95.17
2023-03-22T00:24:00.717Z,95.12
2023-03-22T00:25:00.669Z,95.89
2023-03-22T00:26:00.614Z,94.89
2023-03-22T00:27:00.572Z,95.98
2023-03-22T00:28:00.500Z,95.98
2023-03-22T00:29:00.435Z,95.32
2023-03-22T00:30:00.380Z,95.36
2023-03-22T00:31:00.473Z,95.70
2023-03-22T00:32:00.275Z,94.84
2023-03-22T00:33:00.216Z,95.75
2023-03-22T00:34:00.176Z,95.89
2023-03-22T00:35:00.135Z,95.70
2023-03-22T00:36:00.049Z,95.75
2023-03-22T00:37:00.115Z,95.70
2023-03-22T00:37:59.937Z,95.79
2023-03-22T00:38:59.882Z,95.70
2023-03-22T00:39:59.827Z,95.51
2023-03-22T00:40:59.803Z,95.51
2023-03-22T00:41:59.783Z,95.70
2023-03-22T00:43:00.404Z,95.12
2023-03-22T00:43:59.598Z,95.03
2023-03-22T00:44:59.548Z,95.22
2023-03-22T00:45:59.524Z,95.03
2023-03-22T00:46:59.433Z,95.22
2023-03-22T00:47:59.445Z,95.22
2023-03-22T00:48:59.314Z,95.22
2023-03-22T00:49:59.261Z,95.51
2023-03-22T00:50:59.318Z,95.03
2023-03-22T00:51:59.148Z,95.03
2023-03-22T00:52:59.096Z,95.32
2023-03-22T00:53:59.044Z,94.93
2023-03-22T00:54:58.979Z,95.03
2023-03-22T00:55:58.930Z,94.84
2023-03-22T00:56:58.865Z,94.74
2023-03-22T00:57:58.812Z,94.74
2023-03-22T00:58:58.757Z,94.74
2023-03-22T00:59:58.708Z,94.84
2023-03-22T01:00:58.669Z,94.93
2023-03-22T01:01:58.596Z,94.93
2023-03-22T01:02:58.535Z,95.03
2023-03-22T01:03:58.541Z,94.84
2023-03-22T01:04:58.420Z,95.22
2023-03-22T01:05:58.383Z,95.22
2023-03-22T01:06:58.314Z,95.03
2023-03-22T01:07:58.249Z,95.12
2023-03-22T01:08:58.196Z,94.65
2023-03-22T01:09:58.140Z,94.65
2023-03-22T01:10:58.080Z,94.17
2023-03-22T01:11:58.030Z,94.36
2023-03-22T01:12:57.966Z,94.36
2023-03-22T01:13:57.915Z,94.36
2023-03-22T01:14:57.858Z,94.55
2023-03-22T01:15:57.800Z,94.46
2023-03-22T01:16:57.889Z,94.65
2023-03-22T01:17:57.691Z,94.55
2023-03-22T01:18:57.629Z,94.55
2023-03-22T01:19:57.571Z,94.46
2023-03-22T01:20:57.521Z,93.98
2023-03-22T01:21:57.464Z,94.55
2023-03-22T01:22:57.427Z,94.27
2023-03-22T01:23:57.345Z,94.46
2023-03-22T01:24:57.294Z,94.07
2023-03-22T01:25:57.242Z,94.07
2023-03-22T01:26:57.178Z,94.07
2023-03-22T01:27:57.126Z,94.36
2023-03-22T01:28:57.069Z,94.36
2023-03-22T01:29:57.009Z,94.46
2023-03-22T01:30:57.064Z,94.27
2023-03-22T01:31:56.901Z,94.46
2023-03-22T01:32:56.843Z,94.46
2023-03-22T01:33:56.892Z,94.46
2023-03-22T01:34:56.726Z,94.46
2023-03-22T01:35:56.713Z,94.27
2023-03-22T01:36:56.622Z,94.17
2023-03-22T01:37:56.560Z,94.17
2023-03-22T01:38:56.517Z,94.27
2023-03-22T01:39:56.453Z,94.27
2023-03-22T01:40:56.393Z,94.07
2023-03-22T01:41:56.342Z,94.17
2023-03-22T01:42:56.290Z,93.98
2023-03-22T01:43:56.230Z,93.79
2023-03-22T01:44:57.816Z,93.88
2023-03-22T01:45:57.017Z,94.36
2023-03-22T01:46:56.061Z,93.98
2023-03-22T01:47:56.043Z,93.88
2023-03-22T01:48:55.988Z,93.79
2023-03-22T01:49:55.901Z,93.98
2023-03-22T01:50:55.834Z,93.60
2023-03-22T01:51:55.777Z,93.70
2023-03-22T01:52:55.723Z,93.50
2023-03-22T01:53:55.671Z,93.50
2023-03-22T01:54:55.637Z,93.88
2023-03-22T01:55:55.553Z,93.50
2023-03-22T01:56:55.500Z,93.70
2023-03-22T01:57:55.440Z,93.60
2023-03-22T01:58:55.384Z,93.70
2023-03-22T01:59:55.328Z,93.60
2023-03-22T02:00:55.273Z,93.60
2023-03-22T02:01:55.227Z,93.88
2023-03-22T02:02:55.218Z,93.88
2023-03-22T02:03:55.106Z,93.70
2023-03-22T02:04:55.052Z,93.79
2023-03-22T02:05:54.996Z,94.07
2023-03-22T02:06:54.933Z,93.79
2023-03-22T02:07:54.886Z,93.88
2023-03-22T02:08:54.824Z,94.07
2023-03-22T02:09:54.766Z,93.79
2023-03-22T02:10:54.724Z,93.60
2023-03-22T02:11:54.656Z,93.31
2023-03-22T02:12:54.593Z,93.31
2023-03-22T02:13:54.542Z,93.41
2023-03-22T02:14:54.498Z,93.12
2023-03-22T02:15:54.459Z,93.21
2023-03-22T02:16:54.372Z,93.21
2023-03-22T02:17:54.320Z,93.12
2023-03-22T02:18:54.257Z,93.12
2023-03-22T02:19:54.202Z,93.21
2023-03-22T02:20:54.150Z,93.21
2023-03-22T02:21:54.094Z,93.02
2023-03-22T02:22:54.040Z,92.83
2023-03-22T02:23:53.979Z,92.83
2023-03-22T02:24:53.919Z,93.21
2023-03-22T02:25:53.861Z,92.93
2023-03-22T02:26:53.822Z,93.02
2023-03-22T02:27:53.754Z,93.02
2023-03-22T02:28:53.697Z,93.21
2023-03-22T02:29:53.639Z,92.93
2023-03-22T02:30:53.650Z,93.21
2023-03-22T02:31:53.533Z,93.31
2023-03-22T02:32:53.475Z,93.41
2023-03-22T02:33:53.424Z,93.12
2023-03-22T02:34:53.357Z,93.02
2023-03-22T02:35:53.423Z,92.93
2023-03-22T02:36:53.248Z,92.93
2023-03-22T02:37:53.186Z,92.83
2023-03-22T02:38:53.134Z,92.64
2023-03-22T02:39:53.092Z,92.55
2023-03-22T02:40:53.016Z,92.55
2023-03-22T02:41:52.966Z,92.60
2023-03-22T02:42:52.917Z,92.64
2023-03-22T02:43:52.846Z,92.64
2023-03-22T02:44:52.791Z,92.74
2023-03-22T02:45:52.749Z,92.93
2023-03-22T02:46:52.727Z,92.45
2023-03-22T02:47:52.669Z,92.64
2023-03-22T02:48:52.568Z,92.55
2023-03-22T02:49:52.507Z,92.55
2023-03-22T02:50:52.452Z,92.36
2023-03-22T02:51:52.400Z,92.60
2023-03-22T02:52:52.339Z,92.69
2023-03-22T02:53:52.283Z,92.60
2023-03-22T02:54:52.228Z,92.45
2023-03-22T02:55:52.216Z,92.41
2023-03-22T02:56:52.109Z,92.60
2023-03-22T02:57:52.061Z,92.50
2023-03-22T02:58:52.022Z,92.31
2023-03-22T02:59:51.950Z,92.41
2023-03-22T03:00:51.999Z,92.60
2023-03-22T03:01:51.867Z,92.69
2023-03-22T03:02:51.781Z,92.64
2023-03-22T03:03:51.722Z,92.79
2023-03-22T03:04:51.660Z,92.69
2023-03-22T03:05:51.616Z,92.26
2023-03-22T03:06:51.552Z,92.41
2023-03-22T03:07:51.495Z,92.41
2023-03-22T03:08:51.436Z,91.74
2023-03-22T03:09:51.384Z,91.83
2023-03-22T03:10:51.325Z,91.83
2023-03-22T03:11:51.270Z,91.83
2023-03-22T03:12:51.215Z,92.12
2023-03-22T03:13:51.184Z,91.93
2023-03-22T03:14:51.108Z,92.02
2023-03-22T03:15:51.039Z,92.02
2023-03-22T03:16:50.989Z,91.93
2023-03-22T03:17:50.937Z,92.31
2023-03-22T03:18:50.891Z,91.64
2023-03-22T03:19:50.820Z,91.64
2023-03-22T03:20:50.760Z,91.83
2023-03-22T03:21:50.703Z,92.02
2023-03-22T03:22:50.654Z,91.83
2023-03-22T03:23:50.595Z,91.55
2023-03-22T03:24:50.532Z,91.55
2023-03-22T03:25:50.477Z,91.45
2023-03-22T03:26:50.425Z,91.64
2023-03-22T03:27:50.365Z,91.64
2023-03-22T03:28:50.319Z,91.45
2023-03-22T03:29:50.259Z,91.55
2023-03-22T03:30:50.209Z,91.55
2023-03-22T03:31:50.244Z,91.55
2023-03-22T03:32:50.084Z,91.64
2023-03-22T03:33:50.034Z,91.93
2023-03-22T03:34:49.966Z,91.74
2023-03-22T03:35:49.972Z,91.83
2023-03-22T03:36:49.857Z,91.74
2023-03-22T03:37:49.804Z,91.16
2023-03-22T03:38:49.748Z,91.36
2023-03-22T03:39:49.694Z,91.45
2023-03-22T03:40:49.635Z,91.36
2023-03-22T03:41:49.576Z,91.26
2023-03-22T03:42:49.515Z,91.26
2023-03-22T03:43:49.462Z,91.36
2023-03-22T03:44:49.403Z,91.45
2023-03-22T03:45:49.384Z,91.45
2023-03-22T03:46:49.327Z,91.45
2023-03-22T03:47:49.262Z,91.55
2023-03-22T03:48:49.178Z,90.40
2023-03-22T03:49:49.122Z,90.88
2023-03-22T03:50:49.065Z,90.78
2023-03-22T03:51:49.012Z,90.69
2023-03-22T03:52:48.950Z,90.97
2023-03-22T03:53:48.896Z,91.07
2023-03-22T03:54:48.839Z,90.88
2023-03-22T03:55:48.783Z,90.97
2023-03-22T03:56:48.730Z,90.97
2023-03-22T03:57:48.671Z,90.97
2023-03-22T03:58:48.625Z,91.07
2023-03-22T03:59:48.555Z,91.26
2023-03-22T04:00:48.501Z,91.26
2023-03-22T04:01:48.452Z,90.69
2023-03-22T04:02:48.406Z,90.50
2023-03-22T04:03:48.336Z,90.78
2023-03-22T04:04:48.436Z,90.78
2023-03-22T04:05:48.220Z,90.11
2023-03-22T04:06:48.165Z,90.31
2023-03-22T04:07:48.106Z,90.50
2023-03-22T04:08:48.052Z,90.11
2023-03-22T04:09:48.016Z,90.31
2023-03-22T04:10:47.938Z,90.11
2023-03-22T04:11:47.882Z,90.11
2023-03-22T04:12:47.828Z,90.40
2023-03-22T04:13:47.772Z,90.59
2023-03-22T04:14:47.709Z,90.50
2023-03-22T04:15:47.658Z,90.59
2023-03-22T04:16:47.647Z,90.50
2023-03-22T04:17:47.538Z,90.69
2023-03-22T04:18:47.495Z,90.21
2023-03-22T04:19:47.435Z,90.02
2023-03-22T04:20:47.383Z,90.59
2023-03-22T04:21:47.319Z,90.31
2023-03-22T04:22:47.260Z,90.31
2023-03-22T04:23:47.203Z,90.50
2023-03-22T04:24:47.147Z,90.11
2023-03-22T04:25:47.089Z,90.40
2023-03-22T04:26:47.035Z,90.40
2023-03-22T04:27:46.984Z,90.11
2023-03-22T04:28:46.922Z,90.21
2023-03-22T04:29:46.865Z,90.21
2023-03-22T04:30:46.861Z,90.11
2023-03-22T04:31:46.747Z,90.50
2023-03-22T04:32:46.687Z,90.31
2023-03-22T04:33:46.633Z,90.21
2023-03-22T04:34:46.597Z,90.50
2023-03-22T04:35:46.565Z,89.92
2023-03-22T04:36:46.462Z,89.45
2023-03-22T04:37:46.403Z,90.11
2023-03-22T04:38:46.443Z,89.54
2023-03-22T04:39:46.295Z,89.92
2023-03-22T04:40:46.236Z,90.31
2023-03-22T04:41:46.176Z,90.11
2023-03-22T04:42:46.135Z,90.31
2023-03-22T04:43:46.065Z,90.40
2023-03-22T04:44:46.006Z,90.11
2023-03-22T04:45:45.959Z,89.92
2023-03-22T04:46:45.963Z,90.02
2023-03-22T04:47:45.901Z,90.02
2023-03-22T04:48:45.783Z,90.11
2023-03-22T04:49:45.734Z,90.21
2023-03-22T04:50:45.671Z,90.21
2023-03-22T04:51:45.613Z,90.11
2023-03-22T04:52:45.556Z,90.21
2023-03-22T04:53:45.502Z,90.40
2023-03-22T04:54:45.438Z,90.31
2023-03-22T04:55:45.402Z,90.31
2023-03-22T04:56:45.333Z,90.40
2023-03-22T04:57:45.272Z,89.73
2023-03-22T04:58:45.222Z,89.35
2023-03-22T04:59:45.153Z,89.73
2023-03-22T05:00:45.103Z,89.35
2023-03-22T05:01:45.059Z,89.45
2023-03-22T05:02:45.029Z,89.73
2023-03-22T05:03:44.931Z,89.64
2023-03-22T05:04:44.875Z,89.45
2023-03-22T05:05:44.813Z,89.64
2023-03-22T05:06:44.774Z,89.54
2023-03-22T05:07:44.707Z,89.92
2023-03-22T05:08:44.645Z,89.69
2023-03-22T05:09:44.596Z,89.64
2023-03-22T05:10:44.536Z,89.12
2023-03-22T05:11:44.474Z,89.25
2023-03-22T05:12:44.424Z,89.31
2023-03-22T05:13:44.358Z,89.25
2023-03-22T05:14:44.374Z,89.16
2023-03-22T05:15:44.281Z,89.21
2023-03-22T05:16:44.195Z,88.92
2023-03-22T05:17:44.146Z,89.21
2023-03-22T05:18:44.075Z,89.21
2023-03-22T05:19:44.017Z,89.21
2023-03-22T05:20:43.964Z,89.40
2023-03-22T05:21:43.910Z,89.12
2023-03-22T05:22:43.861Z,88.97
2023-03-22T05:23:43.801Z,88.83
2023-03-22T05:24:43.743Z,88.73
2023-03-22T05:25:43.682Z,89.21
2023-03-22T05:26:43.632Z,88.92
2023-03-22T05:27:43.570Z,89.25
2023-03-22T05:28:43.508Z,88.97
2023-03-22T05:29:43.503Z,89.02
2023-03-22T05:30:43.408Z,88.54
2023-03-22T05:31:43.372Z,89.50
2023-03-22T05:32:43.284Z,88.54
2023-03-22T05:33:43.223Z,88.92
2023-03-22T05:34:43.175Z,89.12
2023-03-22T05:35:43.212Z,89.31
2023-03-22T05:36:43.053Z,89.02
2023-03-22T05:37:42.997Z,89.21
2023-03-22T05:38:42.956Z,88.92
2023-03-22T05:39:42.882Z,88.73
2023-03-22T05:40:42.840Z,89.02
2023-03-22T05:41:42.775Z,89.12
2023-03-22T05:42:42.715Z,88.45
2023-03-22T05:43:42.662Z,89.31
2023-03-22T05:44:42.627Z,88.73
2023-03-22T05:45:42.556Z,88.45
2023-03-22T05:46:42.516Z,88.35
2023-03-22T05:47:42.467Z,88.45
2023-03-22T05:48:42.380Z,88.45
2023-03-22T05:49:42.324Z,88.26
2023-03-22T05:50:42.268Z,88.35
2023-03-22T05:51:42.228Z,88.54
2023-03-22T05:52:42.148Z,88.54
2023-03-22T05:53:42.092Z,88.45
2023-03-22T05:54:42.043Z,88.73
2023-03-22T05:55:41.983Z,88.45
2023-03-22T05:56:41.925Z,88.92
2023-03-22T05:57:41.866Z,88.92
2023-03-22T05:58:41.817Z,88.83
2023-03-22T05:59:41.752Z,88.73
2023-03-22T06:00:41.940Z,88.64
2023-03-22T06:01:41.722Z,88.73
2023-03-22T06:02:41.650Z,88.45
2023-03-22T06:03:41.526Z,88.64
2023-03-22T06:04:41.469Z,88.64
2023-03-22T06:05:41.408Z,88.35
2023-03-22T06:06:41.356Z,88.54
2023-03-22T06:07:41.293Z,88.26
2023-03-22T06:08:41.243Z,88.54
2023-03-22T06:09:41.187Z,88.54
2023-03-22T06:10:41.632Z,88.35
2023-03-22T06:11:41.068Z,88.16
2023-03-22T06:12:41.029Z,88.26
2023-03-22T06:13:40.958Z,88.35
2023-03-22T06:14:40.904Z,87.97
2023-03-22T06:15:40.839Z,88.35
2023-03-22T06:16:40.838Z,88.54
2023-03-22T06:17:40.742Z,88.16
2023-03-22T06:18:40.670Z,88.26
2023-03-22T06:19:40.616Z,88.35
2023-03-22T06:20:41.003Z,88.26
2023-03-22T06:21:40.509Z,88.45
2023-03-22T06:22:40.441Z,87.97
2023-03-22T06:23:40.392Z,88.35
2023-03-22T06:24:40.328Z,87.97
2023-03-22T06:25:40.276Z,88.07
2023-03-22T06:26:40.235Z,88.45
2023-03-22T06:27:40.159Z,88.16
2023-03-22T06:28:40.105Z,88.26
2023-03-22T06:29:40.076Z,88.26
2023-03-22T06:30:40.317Z,88.45
2023-03-22T06:31:39.932Z,88.45
2023-03-22T06:32:39.865Z,88.35
2023-03-22T06:33:39.812Z,87.97
2023-03-22T06:34:39.751Z,88.35
2023-03-22T06:35:39.807Z,88.35
2023-03-22T06:36:39.642Z,88.45
2023-03-22T06:37:39.580Z,88.26
2023-03-22T06:38:39.527Z,88.45
2023-03-22T06:39:39.489Z,88.45
2023-03-22T06:40:39.742Z,88.45
2023-03-22T06:41:39.356Z,88.45
2023-03-22T06:42:39.308Z,88.16
2023-03-22T06:43:39.236Z,88.45
2023-03-22T06:44:39.178Z,88.26
2023-03-22T06:45:39.207Z,88.26
2023-03-22T06:46:39.068Z,88.45
2023-03-22T06:47:39.007Z,88.35
2023-03-22T06:48:38.961Z,88.54
2023-03-22T06:49:38.899Z,88.64
2023-03-22T06:50:39.169Z,88.35
2023-03-22T06:51:38.781Z,88.54
2023-03-22T06:52:38.729Z,88.73
2023-03-22T06:53:38.667Z,88.83
2023-03-22T06:54:38.613Z,88.45
2023-03-22T06:55:38.548Z,88.64
2023-03-22T06:56:38.497Z,88.54
2023-03-22T06:57:38.437Z,88.64
2023-03-22T06:58:38.388Z,88.73
2023-03-22T06:59:38.322Z,88.54
2023-03-22T07:00:38.523Z,88.54
2023-03-22T07:01:38.236Z,88.45
2023-03-22T07:02:38.149Z,88.54
2023-03-22T07:03:38.091Z,88.26
2023-03-22T07:04:38.103Z,88.54
2023-03-22T07:05:37.994Z,88.73
2023-03-22T07:06:37.928Z,88.45
2023-03-22T07:07:37.872Z,88.92
2023-03-22T07:08:37.815Z,88.83
2023-03-22T07:09:37.757Z,88.64
2023-03-22T07:10:38.125Z,88.92
2023-03-22T07:11:37.638Z,89.12
2023-03-22T07:12:37.602Z,88.73
2023-03-22T07:13:37.523Z,88.54
2023-03-22T07:14:37.475Z,89.21
2023-03-22T07:15:37.475Z,89.02
2023-03-22T07:16:37.352Z,89.40
2023-03-22T07:17:37.293Z,88.83
2023-03-22T07:18:37.251Z,88.92
2023-03-22T07:19:37.188Z,88.73
2023-03-22T07:20:37.431Z,89.12
2023-03-22T07:21:37.070Z,88.92
2023-03-22T07:22:37.012Z,89.21
2023-03-22T07:23:36.955Z,88.92
2023-03-22T07:24:44.641Z,88.54
2023-03-22T07:25:36.851Z,89.40
2023-03-22T07:26:36.793Z,89.21
2023-03-22T07:27:36.724Z,89.12
2023-03-22T07:28:36.901Z,89.12
2023-03-22T07:29:36.616Z,89.02
2023-03-22T07:30:36.563Z,89.21
2023-03-22T07:31:36.533Z,89.12
2023-03-22T07:32:36.525Z,89.02
2023-03-22T07:33:36.381Z,89.50
2023-03-22T07:34:36.328Z,89.31
2023-03-22T07:35:36.280Z,89.88
2023-03-22T07:36:36.219Z,89.88
2023-03-22T07:37:36.165Z,89.40
2023-03-22T07:38:36.102Z,89.50
2023-03-22T07:39:36.051Z,89.69
2023-03-22T07:40:36.261Z,89.50
2023-03-22T07:41:35.929Z,89.31
2023-03-22T07:42:35.872Z,89.50
2023-03-22T07:43:50.792Z,89.40
2023-03-22T07:44:35.763Z,89.69
2023-03-22T07:45:35.708Z,89.50
2023-03-22T07:46:35.713Z,90.07
2023-03-22T07:47:41.125Z,90.26
2023-03-22T07:48:35.535Z,90.26
2023-03-22T07:49:35.478Z,90.07
2023-03-22T07:50:35.430Z,89.97
2023-03-22T07:51:35.359Z,89.97
2023-03-22T07:52:35.308Z,89.78
2023-03-22T07:53:35.255Z,90.17
2023-03-22T07:54:35.204Z,89.69
2023-03-22T07:55:35.133Z,89.50
2023-03-22T07:56:35.084Z,90.36
2023-03-22T07:57:35.025Z,89.40
2023-03-22T07:58:34.969Z,90.17
2023-03-22T07:59:34.925Z,89.88
2023-03-22T08:00:34.859Z,89.97
2023-03-22T08:01:34.882Z,90.07
2023-03-22T08:02:34.755Z,90.36
2023-03-22T08:03:34.682Z,90.26
2023-03-22T08:04:34.622Z,90.26
2023-03-22T08:05:34.563Z,90.07
2023-03-22T08:06:34.510Z,89.97
2023-03-22T08:07:34.454Z,90.36
2023-03-22T08:08:34.394Z,90.45
2023-03-22T08:09:34.336Z,90.55
2023-03-22T08:10:34.294Z,90.45
2023-03-22T08:11:34.226Z,90.26
2023-03-22T08:12:34.169Z,90.45
2023-03-22T08:13:34.122Z,90.36
2023-03-22T08:14:37.079Z,90.45
2023-03-22T08:15:33.996Z,90.36
2023-03-22T08:16:34.008Z,90.26
2023-03-22T08:17:33.882Z,90.45
2023-03-22T08:18:33.836Z,90.07
2023-03-22T08:19:33.764Z,90.07
2023-03-22T08:20:33.713Z,90.36
2023-03-22T08:21:33.654Z,90.07
2023-03-22T08:22:33.594Z,90.07
2023-03-22T08:23:41.574Z,89.97
2023-03-22T08:24:33.490Z,90.45
2023-03-22T08:25:33.427Z,90.45
2023-03-22T08:26:33.366Z,90.26
2023-03-22T08:27:33.337Z,90.55
2023-03-22T08:28:33.261Z,90.45
2023-03-22T08:29:33.197Z,90.64
2023-03-22T08:30:33.152Z,90.17
2023-03-22T08:31:33.157Z,90.17
2023-03-22T08:32:33.048Z,90.26
2023-03-22T08:33:32.967Z,90.17
2023-03-22T08:34:32.919Z,90.17
2023-03-22T08:35:32.955Z,90.17
2023-03-22T08:36:32.796Z,89.97
2023-03-22T08:37:32.743Z,89.97
2023-03-22T08:38:32.700Z,89.83
2023-03-22T08:39:32.637Z,90.36
2023-03-22T08:40:32.667Z,90.07
2023-03-22T08:41:32.519Z,90.07
2023-03-22T08:42:32.455Z,90.07
2023-03-22T08:43:32.398Z,90.17
2023-03-22T08:44:32.344Z,90.17
2023-03-22T08:45:32.306Z,89.78
2023-03-22T08:46:32.250Z,89.31
2023-03-22T08:47:32.176Z,89.92
2023-03-22T08:48:32.121Z,90.11
2023-03-22T08:49:32.056Z,90.02
2023-03-22T08:50:32.028Z,89.92
2023-03-22T08:51:31.943Z,89.92
2023-03-22T08:52:31.891Z,89.92
2023-03-22T08:53:31.828Z,90.02
2023-03-22T08:54:31.774Z,90.02
2023-03-22T08:55:31.711Z,90.07
2023-03-22T08:56:31.654Z,89.78
2023-03-22T08:57:31.613Z,89.97
2023-03-22T08:58:31.597Z,89.92
2023-03-22T08:59:31.486Z,90.11
2023-03-22T09:00:45.755Z,90.11
2023-03-22T09:01:31.554Z,89.54
2023-03-22T09:02:31.315Z,90.11
2023-03-22T09:03:31.264Z,90.02
2023-03-22T09:04:31.231Z,90.02
2023-03-22T09:05:31.147Z,89.54
2023-03-22T09:06:31.091Z,90.11
2023-03-22T09:07:31.029Z,90.02
2023-03-22T09:08:30.982Z,89.25
2023-03-22T09:09:30.924Z,89.92
2023-03-22T09:10:30.865Z,90.02
2023-03-22T09:11:30.810Z,89.45
2023-03-22T09:12:30.749Z,90.02
2023-03-22T09:13:30.695Z,89.54
2023-03-22T09:14:30.629Z,90.11
2023-03-22T09:15:30.576Z,89.25
2023-03-22T09:16:30.575Z,89.92
2023-03-22T09:17:30.471Z,90.02
2023-03-22T09:18:30.406Z,89.35
2023-03-22T09:19:30.354Z,89.92
2023-03-22T09:20:30.293Z,90.21
2023-03-22T09:21:30.236Z,90.59
2023-03-22T09:22:30.186Z,90.11
2023-03-22T09:23:30.128Z,90.50
2023-03-22T09:24:30.063Z,90.11
2023-03-22T09:25:30.010Z,90.31
2023-03-22T09:26:29.945Z,90.31
2023-03-22T09:27:29.906Z,90.21
2023-03-22T09:28:29.903Z,90.31
2023-03-22T09:29:29.806Z,90.31
2023-03-22T09:30:29.742Z,90.21
2023-03-22T09:31:29.774Z,90.31
2023-03-22T09:32:29.605Z,90.59
2023-03-22T09:33:29.551Z,90.21
2023-03-22T09:34:29.541Z,90.11
2023-03-22T09:35:29.459Z,90.02
2023-03-22T09:36:29.447Z,90.11
2023-03-22T09:37:29.334Z,90.21
2023-03-22T09:38:29.276Z,90.02
2023-03-22T09:39:29.212Z,90.31
2023-03-22T09:40:29.153Z,90.11
2023-03-22T09:41:29.097Z,90.02
2023-03-22T09:42:29.042Z,90.21
2023-03-22T09:43:28.989Z,90.21
2023-03-22T09:44:28.927Z,90.59
2023-03-22T09:45:28.870Z,90.11
2023-03-22T09:46:28.905Z,90.02
2023-03-22T09:47:42.236Z,90.11
2023-03-22T09:48:28.850Z,90.11
2023-03-22T09:49:28.642Z,90.11
2023-03-22T09:50:28.588Z,90.02
2023-03-22T09:51:28.528Z,90.02
2023-03-22T09:52:28.487Z,90.40
2023-03-22T09:53:28.430Z,90.40
2023-03-22T09:54:28.364Z,90.50
2023-03-22T09:55:28.307Z,90.50
2023-03-22T09:56:28.248Z,90.31
2023-03-22T09:57:28.194Z,90.59
2023-03-22T09:58:28.148Z,90.69
2023-03-22T09:59:28.073Z,90.59
2023-03-22T10:00:28.145Z,90.21
2023-03-22T10:01:28.208Z,90.40
2023-03-22T10:02:27.935Z,90.40
2023-03-22T10:03:27.854Z,90.40
2023-03-22T10:04:27.863Z,90.59
2023-03-22T10:05:27.732Z,90.40
2023-03-22T10:06:29.380Z,90.59
2023-03-22T10:07:27.641Z,90.40
2023-03-22T10:08:27.572Z,90.50
2023-03-22T10:09:27.507Z,90.31
2023-03-22T10:10:27.464Z,90.78
2023-03-22T10:11:27.396Z,90.78
2023-03-22T10:12:27.349Z,90.59
2023-03-22T10:13:27.288Z,90.88
2023-03-22T10:14:27.228Z,90.97
2023-03-22T10:15:27.175Z,90.88
2023-03-22T10:16:27.191Z,91.36
2023-03-22T10:17:27.075Z,90.78
2023-03-22T10:18:27.000Z,90.88
2023-03-22T10:19:26.950Z,91.45
2023-03-22T10:20:26.912Z,91.26
2023-03-22T10:21:26.831Z,91.26
2023-03-22T10:22:26.779Z,91.74
2023-03-22T10:23:26.725Z,91.64
2023-03-22T10:24:26.667Z,91.55
2023-03-22T10:25:26.602Z,91.59
2023-03-22T10:26:26.555Z,91.74
2023-03-22T10:27:26.488Z,91.59
2023-03-22T10:28:26.444Z,91.64
2023-03-22T10:29:26.376Z,91.45
2023-03-22T10:30:26.315Z,91.74
2023-03-22T10:31:26.272Z,91.55
2023-03-22T10:32:26.209Z,91.78
2023-03-22T10:33:26.156Z,91.69
2023-03-22T10:34:26.097Z,91.97
2023-03-22T10:35:26.130Z,91.36
2023-03-22T10:36:25.983Z,91.93
2023-03-22T10:37:25.926Z,91.78
2023-03-22T10:38:25.869Z,91.59
2023-03-22T10:39:25.813Z,91.78
2023-03-22T10:40:25.753Z,91.78
2023-03-22T10:41:25.703Z,91.97
2023-03-22T10:42:25.653Z,91.69
2023-03-22T10:43:25.594Z,91.69
2023-03-22T10:44:25.526Z,91.97
2023-03-22T10:45:25.474Z,91.88
2023-03-22T10:46:25.441Z,91.97
2023-03-22T10:47:25.360Z,91.78
2023-03-22T10:48:25.402Z,91.50
2023-03-22T10:49:25.260Z,91.69
2023-03-22T10:50:25.189Z,91.69
2023-03-22T10:51:25.132Z,91.69
2023-03-22T10:52:25.083Z,91.69
2023-03-22T10:53:25.025Z,91.69
2023-03-22T10:54:26.125Z,91.69
2023-03-22T10:55:24.916Z,92.26
2023-03-22T10:56:24.851Z,92.07
2023-03-22T10:57:24.802Z,91.97
2023-03-22T10:58:24.749Z,92.07
2023-03-22T10:59:24.688Z,91.88
2023-03-22T11:00:24.852Z,92.36
2023-03-22T11:01:24.761Z,91.69
2023-03-22T11:02:24.675Z,91.78
2023-03-22T11:03:24.464Z,91.69
2023-03-22T11:04:24.402Z,91.78
2023-03-22T11:05:24.365Z,91.78
2023-03-22T11:06:24.315Z,91.88
2023-03-22T11:07:24.243Z,91.88
2023-03-22T11:08:24.187Z,91.59
2023-03-22T11:09:24.132Z,91.69
2023-03-22T11:10:24.116Z,91.40
2023-03-22T11:11:24.009Z,91.50
2023-03-22T11:12:23.956Z,91.69
2023-03-22T11:13:23.897Z,91.78
2023-03-22T11:14:23.863Z,91.40
2023-03-22T11:15:23.806Z,91.78
2023-03-22T11:16:23.833Z,91.78
2023-03-22T11:17:23.677Z,91.59
2023-03-22T11:18:23.616Z,91.97
2023-03-22T11:19:23.560Z,91.69
2023-03-22T11:20:23.555Z,91.59
2023-03-22T11:21:23.446Z,91.97
2023-03-22T11:22:23.403Z,92.07
2023-03-22T11:23:23.334Z,91.50
2023-03-22T11:24:23.281Z,91.78
2023-03-22T11:25:23.222Z,91.69
2023-03-22T11:27:23.112Z,92.26
2023-03-22T11:28:23.048Z,91.78
2023-03-22T11:29:23.008Z,92.07
2023-03-22T11:30:22.959Z,91.88
2023-03-22T11:31:22.997Z,92.07
2023-03-22T11:32:22.828Z,92.16
2023-03-22T11:33:22.771Z,92.36
2023-03-22T11:34:22.716Z,93.02
2023-03-22T11:35:22.671Z,92.93
2023-03-22T11:36:22.600Z,93.21
2023-03-22T11:37:22.543Z,93.79
2023-03-22T11:38:22.490Z,93.93
2023-03-22T11:39:22.439Z,93.98
2023-03-22T11:40:22.382Z,94.22
2023-03-22T11:41:22.327Z,94.22
2023-03-22T11:42:22.277Z,94.41
2023-03-22T11:43:22.219Z,94.70
2023-03-22T11:44:22.155Z,94.51
2023-03-22T11:45:22.102Z,94.31
2023-03-22T11:46:22.142Z,93.93
2023-03-22T11:47:21.989Z,94.12
2023-03-22T11:48:22.062Z,93.84
2023-03-22T11:49:21.885Z,93.84
2023-03-22T11:50:21.819Z,93.84
2023-03-22T11:51:21.767Z,93.65
2023-03-22T11:52:21.708Z,94.22
2023-03-22T11:53:21.649Z,93.36
2023-03-22T11:54:21.602Z,93.26
2023-03-22T11:55:21.547Z,92.88
2023-03-22T11:56:21.494Z,92.88
2023-03-22T11:57:21.433Z,92.79
2023-03-22T11:58:22.987Z,92.79
2023-03-22T11:59:21.319Z,91.93
2023-03-22T12:00:21.256Z,91.97
2023-03-22T12:01:21.202Z,91.97
2023-03-22T12:02:21.215Z,91.59
2023-03-22T12:03:21.323Z,91.59
2023-03-22T12:04:21.070Z,91.68
2023-03-22T12:05:21.050Z,91.20
2023-03-22T12:06:20.953Z,91.30
2023-03-22T12:07:20.911Z,91.49
2023-03-22T12:08:20.809Z,90.63
2023-03-22T12:09:20.769Z,91.11
2023-03-22T12:10:20.700Z,90.63
2023-03-22T12:11:20.652Z,91.49
2023-03-22T12:12:20.583Z,90.73
2023-03-22T12:13:20.530Z,91.59
2023-03-22T12:14:20.470Z,91.78
2023-03-22T12:15:20.441Z,91.59
2023-03-22T12:16:21.161Z,90.73
2023-03-22T12:17:20.304Z,90.44
2023-03-22T12:18:20.337Z,90.82
2023-03-22T12:19:20.191Z,90.44
2023-03-22T12:20:20.156Z,90.53
2023-03-22T12:21:20.082Z,91.30
2023-03-22T12:22:20.043Z,91.49
2023-03-22T12:23:19.977Z,92.07
2023-03-22T12:24:19.912Z,91.68
2023-03-22T12:25:19.864Z,91.68
2023-03-22T12:26:19.813Z,91.06
2023-03-22T12:27:19.767Z,91.39
2023-03-22T12:28:19.688Z,92.21
2023-03-22T12:29:19.635Z,91.59
2023-03-22T12:30:19.588Z,91.02
2023-03-22T12:31:19.590Z,90.96
2023-03-22T12:32:19.487Z,91.20
2023-03-22T12:33:19.515Z,91.39
2023-03-22T12:34:19.367Z,91.16
2023-03-22T12:35:19.337Z,91.63
2023-03-22T12:36:19.397Z,91.44
2023-03-22T12:37:19.256Z,90.77
2023-03-22T12:38:19.155Z,90.87
2023-03-22T12:39:19.090Z,90.20
2023-03-22T12:40:19.026Z,90.67
2023-03-22T12:41:18.976Z,91.35
2023-03-22T12:42:18.917Z,91.44
2023-03-22T12:43:18.864Z,91.53
2023-03-22T12:44:18.808Z,91.53
2023-03-22T12:45:18.753Z,91.73
2023-03-22T12:46:18.723Z,91.83
2023-03-22T12:47:18.647Z,91.73
2023-03-22T12:48:18.740Z,92.21
2023-03-22T12:49:18.524Z,91.73
2023-03-22T12:50:18.485Z,91.53
2023-03-22T12:51:18.426Z,91.73
2023-03-22T12:52:18.356Z,91.16